TAF

TERMINAL AERODROME FORECAST
STASIUN METEOROLOGI HANG NADIM BATAM
ADDS - METARS form results

Aviation Digital Data Service (ADDS)

Output produced by METARs form (1136 UTC 21 January 2022)
found at http://www.aviationweather.gov/metar/data/
 
METAR text: WIDD 211100Z 04012KT 9999 FEW014 28/23 Q1010 NOSIG
Conditions at: WIDD (HANG NADIM , ID) observed 1100 UTC 21 January 2022
Temperature: 28.0°C (82°F)
Dewpoint: 23.0°C (73°F) [RH = 74%]
Pressure (altimeter): 29.82 inches Hg (1010.0 mb)
Winds: from the NE (40 degrees) at 14 MPH (12 knots; 6.2 m/s)
Visibility: 6 or more miles (10+ km)
Ceiling: at least 12,000 feet AGL
Clouds: few clouds at 1400 feet AGL
Weather: no significant weather observed at this time

Forecast for: WIDD (HANG NADIM , ID)
Text: TAF WIDD 211100Z 2112/2212 02008KT 9000 SCT014
Forecast period: 1200 UTC 21 January 2022 to 1200 UTC 22 January 2022
Forecast type: FROM: standard forecast or significant change
Winds: from the NNE (20 degrees) at 9 MPH (8 knots; 4.1 m/s)
Visibility: 6 miles (9 km)
Ceiling: at least 12,000 feet AGL
Clouds: scattered clouds at 1400 feet AGL
Weather: no significant weather forecast for this period

Informasi TAF dapat diakses juga di http://aviation.bmkg.go.id